Time;durP1;ratioP1;P1;durP2;ratioP2;P2;SDS_P1;SDS_P2;PMS_P1;PMS_P2;Temp;Humidity;BMP_temperature;BMP_pressure;BME280_temperature;BME280_humidity;BME280_pressure;Samples;Min_cycle;Max_cycle;Signal;HPM_P1;HPM_P2
2023/02/01 00:01:15;;;;;;;6.07;2.70;;;1.90;99.90;;;;;;5060154;28;20044;-67
2023/02/01 00:03:42;;;;;;;3.35;2.35;;;1.90;99.90;;;;;;5059654;28;20439;-68
2023/02/01 00:06:09;;;;;;;4.63;2.10;;;1.90;99.90;;;;;;5074678;28;20151;-62
2023/02/01 00:08:36;;;;;;;3.92;2.03;;;1.90;99.90;;;;;;5061297;28;20048;-68
2023/02/01 00:11:06;;;;;;;3.03;2.40;;;1.90;99.90;;;;;;5060239;28;20140;-63
2023/02/01 00:13:35;;;;;;;5.82;2.40;;;1.90;99.90;;;;;;5061935;28;20059;-63
2023/02/01 00:16:07;;;;;;;4.03;2.03;;;1.90;99.90;;;;;;5063221;28;20085;-65
2023/02/01 00:18:34;;;;;;;3.10;1.90;;;1.90;99.90;;;;;;5060919;28;20102;-63
2023/02/01 00:21:02;;;;;;;5.25;2.60;;;1.90;99.90;;;;;;5058382;28;20044;-66
2023/02/01 00:23:33;;;;;;;4.43;2.60;;;1.90;99.90;;;;;;5061814;28;20232;-62
2023/02/01 00:26:03;;;;;;;4.85;2.55;;;1.90;99.90;;;;;;5061233;28;20462;-63
2023/02/01 00:28:30;;;;;;;5.07;3.60;;;1.90;99.90;;;;;;5063434;28;20132;-70
2023/02/01 00:31:01;;;;;;;5.00;3.15;;;1.90;99.90;;;;;;5061485;28;20076;-65
2023/02/01 00:33:30;;;;;;;4.95;2.83;;;1.90;99.90;;;;;;5062084;28;20059;-63
2023/02/01 00:35:58;;;;;;;4.25;2.88;;;1.90;99.90;;;;;;5063379;28;20121;-62
2023/02/01 00:38:27;;;;;;;5.38;3.33;;;2.00;99.90;;;;;;5060898;28;20056;-64
2023/02/01 00:41:01;;;;;;;6.20;3.38;;;1.90;99.90;;;;;;5061193;28;20206;-67
2023/02/01 00:43:28;;;;;;;4.88;3.05;;;1.90;99.90;;;;;;5063419;28;20117;-62
2023/02/01 00:45:54;;;;;;;6.65;3.60;;;1.90;99.90;;;;;;5063895;28;20144;-69
2023/02/01 00:48:21;;;;;;;3.67;2.63;;;1.90;99.90;;;;;;5062323;28;20399;-62
2023/02/01 00:50:48;;;;;;;5.03;3.22;;;1.90;99.90;;;;;;5059327;28;20178;-66
2023/02/01 00:53:16;;;;;;;4.13;3.05;;;1.90;99.90;;;;;;5061161;28;20127;-66
2023/02/01 00:55:47;;;;;;;5.68;3.63;;;1.80;99.90;;;;;;5061751;28;20055;-63
2023/02/01 00:58:14;;;;;;;8.85;3.58;;;1.80;99.90;;;;;;5047301;28;20106;-64
2023/02/01 01:00:41;;;;;;;8.88;3.65;;;1.80;99.90;;;;;;5060178;28;20048;-63
2023/02/01 01:03:17;;;;;;;8.63;3.50;;;1.80;99.90;;;;;;5058290;28;20144;-63
2023/02/01 01:05:48;;;;;;;7.25;2.75;;;1.80;99.90;;;;;;5062517;28;20114;-63
2023/02/01 01:08:16;;;;;;;4.82;2.25;;;1.80;99.90;;;;;;5061855;28;20044;-62
2023/02/01 01:10:43;;;;;;;6.60;3.38;;;1.80;99.90;;;;;;5061313;28;20080;-64
2023/02/01 01:13:10;;;;;;;6.90;3.63;;;1.80;99.90;;;;;;5062612;28;20131;-62
2023/02/01 01:15:39;;;;;;;9.93;3.80;;;1.80;99.90;;;;;;5063262;28;20159;-62
2023/02/01 01:18:06;;;;;;;8.30;3.33;;;1.80;99.90;;;;;;5051527;28;20048;-64
2023/02/01 01:20:36;;;;;;;4.35;3.05;;;1.80;99.90;;;;;;5054305;28;20048;-67
2023/02/01 01:23:04;;;;;;;4.50;2.63;;;1.90;99.90;;;;;;5057487;28;20044;-64
2023/02/01 01:25:31;;;;;;;6.72;3.08;;;1.90;99.90;;;;;;5057203;28;20045;-63
2023/02/01 01:27:58;;;;;;;5.32;2.92;;;1.90;99.90;;;;;;5062174;28;20048;-64
2023/02/01 01:30:25;;;;;;;7.07;3.00;;;1.90;99.90;;;;;;5058897;28;20053;-64
2023/02/01 01:32:52;;;;;;;7.80;3.13;;;1.90;99.90;;;;;;5062283;28;20040;-64
2023/02/01 01:35:19;;;;;;;4.10;2.60;;;1.90;99.90;;;;;;5065402;28;20129;-63
2023/02/01 01:37:46;;;;;;;4.70;2.30;;;1.90;99.90;;;;;;5060875;28;20041;-63
2023/02/01 01:40:13;;;;;;;6.25;2.13;;;1.90;99.90;;;;;;5063446;28;20465;-64
2023/02/01 01:42:42;;;;;;;2.22;1.70;;;1.90;99.90;;;;;;5059609;28;20045;-65
2023/02/01 01:45:25;;;;;;;4.22;1.63;;;1.90;99.90;;;;;;5065310;28;20603;-62
2023/02/01 01:47:56;;;;;;;2.33;1.00;;;2.00;99.90;;;;;;5059089;28;20101;-62
2023/02/01 01:50:39;;;;;;;6.35;1.33;;;2.00;99.90;;;;;;5080249;28;20094;-64
2023/02/01 01:53:11;;;;;;;2.97;0.80;;;2.00;99.90;;;;;;5060276;28;20048;-64
2023/02/01 01:55:42;;;;;;;1.20;0.68;;;2.00;99.90;;;;;;5064816;28;20075;-63
2023/02/01 01:58:14;;;;;;;3.38;1.55;;;2.00;99.90;;;;;;5062003;28;20074;-62
2023/02/01 02:00:42;;;;;;;3.47;1.23;;;2.10;99.90;;;;;;5063723;28;20059;-62
2023/02/01 02:03:15;;;;;;;1.95;0.77;;;2.10;99.90;;;;;;5063500;28;20068;-68
2023/02/01 02:05:43;;;;;;;1.90;1.05;;;2.10;99.90;;;;;;5067333;28;20076;-64
2023/02/01 02:08:11;;;;;;;3.20;0.98;;;2.20;99.90;;;;;;5063618;28;20109;-62
2023/02/01 02:13:25;;;;;;;4.50;1.10;;;2.20;99.90;;;;;;5063417;28;20139;-63
2023/02/01 02:16:31;;;;;;;3.80;1.27;;;2.20;99.90;;;;;;5063557;28;20064;-65
2023/02/01 02:19:29;;;;;;;4.13;1.27;;;2.20;99.90;;;;;;5037447;28;20405;-63
2023/02/01 02:22:29;;;;;;;3.03;0.90;;;2.20;99.90;;;;;;5066312;28;20136;-63
2023/02/01 02:25:17;;;;;;;2.40;0.70;;;2.20;99.90;;;;;;5050970;28;20143;-64
2023/02/01 02:28:06;;;;;;;5.45;1.25;;;2.20;99.90;;;;;;5060591;28;20172;-66
2023/02/01 02:30:54;;;;;;;5.32;0.95;;;2.20;99.90;;;;;;5061857;28;20071;-67
2023/02/01 02:33:38;;;;;;;0.60;0.50;;;2.20;99.90;;;;;;5054227;28;20690;-64
2023/02/01 02:36:17;;;;;;;4.70;1.35;;;2.20;99.90;;;;;;5058639;28;20464;-63
2023/02/01 02:38:58;;;;;;;2.42;1.13;;;2.20;99.90;;;;;;5060165;28;20048;-64
2023/02/01 02:48:12;;;;;;;2.15;1.13;;;2.20;99.90;;;;;;5000319;28;20069;-64
2023/02/01 03:04:59;;;;;;;6.45;0.93;;;2.50;99.90;;;;;;5051902;28;22573;-63
2023/02/01 03:07:48;;;;;;;3.00;1.40;;;2.50;99.90;;;;;;5056503;28;20117;-70
2023/02/01 03:10:32;;;;;;;1.75;1.05;;;2.50;99.90;;;;;;5062797;28;20139;-64
2023/02/01 03:13:07;;;;;;;2.58;0.70;;;2.60;99.90;;;;;;5052594;28;20115;-65
2023/02/01 03:15:56;;;;;;;3.25;0.70;;;2.60;99.90;;;;;;5062091;28;20406;-63
2023/02/01 03:19:00;;;;;;;5.70;1.15;;;2.60;99.90;;;;;;5053130;28;20477;-63
2023/02/01 03:21:39;;;;;;;2.65;0.68;;;2.60;99.90;;;;;;5057836;28;20340;-64
2023/02/01 03:24:20;;;;;;;2.40;0.73;;;2.60;99.90;;;;;;5056229;28;20055;-66
2023/02/01 03:26:55;;;;;;;2.85;0.73;;;2.60;99.90;;;;;;5061314;28;20502;-66
2023/02/01 03:29:29;;;;;;;4.25;0.57;;;2.60;99.90;;;;;;5054157;28;20048;-64
2023/02/01 03:31:56;;;;;;;1.17;0.63;;;2.60;99.90;;;;;;5059741;28;20055;-68
2023/02/01 03:34:23;;;;;;;5.65;0.80;;;2.60;99.90;;;;;;5060631;28;20052;-62
2023/02/01 03:37:03;;;;;;;4.53;0.85;;;2.70;99.90;;;;;;5055205;28;20045;-65
2023/02/01 03:39:48;;;;;;;;;;;2.70;99.90;;;;;;5060154;28;20126;-62
2023/02/01 03:42:28;;;;;;;2.47;0.50;;;2.70;99.90;;;;;;5063810;28;19956;-67
2023/02/01 03:45:20;;;;;;;4.53;0.82;;;2.70;99.90;;;;;;5067613;28;20114;-63
2023/02/01 03:47:52;;;;;;;1.85;0.60;;;2.70;99.90;;;;;;5054644;28;20116;-66
2023/02/01 03:50:23;;;;;;;2.15;0.70;;;2.70;99.90;;;;;;5077946;28;20432;-68
2023/02/01 03:52:59;;;;;;;4.18;1.20;;;2.70;99.90;;;;;;5060832;28;20362;-65
2023/02/01 03:55:27;;;;;;;4.15;0.43;;;2.70;99.90;;;;;;5057063;28;20048;-62
2023/02/01 03:58:12;;;;;;;1.65;1.48;;;2.70;99.90;;;;;;5062089;28;20110;-64
2023/02/01 04:00:40;;;;;;;0.52;0.35;;;2.70;99.90;;;;;;5064024;28;20057;-65
2023/02/01 04:03:07;;;;;;;1.38;0.98;;;2.70;99.90;;;;;;5068007;28;20075;-66
2023/02/01 04:05:34;;;;;;;6.10;0.70;;;2.70;99.90;;;;;;5063687;28;20159;-63
2023/02/01 04:08:04;;;;;;;3.28;1.50;;;2.80;99.90;;;;;;5059820;28;20044;-71
2023/02/01 04:10:32;;;;;;;4.90;0.75;;;2.80;99.90;;;;;;5061667;28;20044;-62
2023/02/01 04:12:59;;;;;;;3.65;1.02;;;2.80;99.90;;;;;;5062124;28;20647;-64
2023/02/01 04:15:25;;;;;;;0.85;0.80;;;2.80;99.90;;;;;;5061396;28;20143;-70
2023/02/01 04:17:52;;;;;;;5.28;0.65;;;2.70;99.90;;;;;;5062375;28;20354;-63
2023/02/01 04:20:19;;;;;;;2.60;0.43;;;2.70;99.90;;;;;;5054661;28;20091;-67
2023/02/01 04:22:46;;;;;;;2.83;0.90;;;2.70;99.90;;;;;;5057450;28;20058;-66
2023/02/01 04:25:13;;;;;;;1.08;0.95;;;2.60;99.90;;;;;;5060065;28;20063;-62
2023/02/01 04:27:40;;;;;;;3.00;0.77;;;2.60;99.90;;;;;;5062400;28;20086;-64
2023/02/01 04:30:09;;;;;;;3.03;0.80;;;2.70;99.90;;;;;;5061662;28;20105;-69
2023/02/01 04:32:37;;;;;;;7.00;0.93;;;2.70;99.90;;;;;;5061056;28;20549;-63
2023/02/01 04:35:05;;;;;;;2.40;0.63;;;2.70;99.90;;;;;;5061393;28;20115;-62
2023/02/01 04:37:32;;;;;;;1.08;0.50;;;2.70;99.90;;;;;;5063410;28;20525;-66
2023/02/01 04:39:59;;;;;;;1.40;0.43;;;2.70;99.90;;;;;;5062967;28;20049;-62
2023/02/01 04:42:26;;;;;;;0.93;0.43;;;2.70;99.90;;;;;;5063418;28;20143;-64
2023/02/01 04:44:53;;;;;;;3.63;0.57;;;2.70;99.90;;;;;;5060025;28;20128;-63
2023/02/01 04:47:20;;;;;;;2.67;0.63;;;2.70;99.90;;;;;;5062384;28;20124;-62
2023/02/01 04:49:47;;;;;;;2.08;0.52;;;2.70;99.90;;;;;;5058345;28;20467;-65
2023/02/01 04:52:14;;;;;;;1.13;0.40;;;2.70;99.90;;;;;;5064099;28;20413;-63
2023/02/01 04:54:40;;;;;;;1.90;0.60;;;2.70;99.90;;;;;;5058455;28;20062;-63
2023/02/01 04:57:07;;;;;;;1.83;0.77;;;2.70;99.90;;;;;;5063979;28;20044;-63
2023/02/01 04:59:35;;;;;;;3.53;1.48;;;2.70;99.90;;;;;;5060129;28;20040;-62
2023/02/01 05:02:01;;;;;;;1.23;0.60;;;2.70;99.90;;;;;;5057279;28;20437;-66
2023/02/01 05:04:28;;;;;;;3.00;0.60;;;2.70;99.90;;;;;;5060605;28;20135;-71
2023/02/01 05:06:55;;;;;;;5.82;0.60;;;2.70;99.90;;;;;;5055393;28;20063;-70
2023/02/01 05:09:22;;;;;;;5.50;0.95;;;2.70;99.90;;;;;;5059788;28;20052;-63
2023/02/01 05:14:35;;;;;;;3.30;1.15;;;2.60;99.90;;;;;;5054344;28;20049;-63
2023/02/01 05:17:01;;;;;;;0.40;0.40;;;2.60;99.90;;;;;;5061011;28;20398;-68
2023/02/01 05:19:28;;;;;;;2.70;0.82;;;2.60;99.90;;;;;;5056963;28;20052;-63
2023/02/01 05:21:55;;;;;;;3.97;0.57;;;2.60;99.90;;;;;;5061233;28;20387;-66
2023/02/01 05:24:22;;;;;;;5.82;1.42;;;2.60;99.90;;;;;;5060753;28;20841;-63
2023/02/01 05:26:49;;;;;;;2.85;1.00;;;2.50;99.90;;;;;;5060548;28;20075;-64
2023/02/01 05:29:17;;;;;;;2.15;0.85;;;2.50;99.90;;;;;;5061071;28;20062;-62
2023/02/01 05:31:46;;;;;;;2.33;0.93;;;2.50;99.90;;;;;;5061471;28;20133;-64
2023/02/01 05:34:13;;;;;;;2.28;1.02;;;2.50;99.90;;;;;;5060655;28;20350;-65
2023/02/01 05:36:40;;;;;;;2.10;0.63;;;2.50;99.90;;;;;;5056591;28;20044;-65
2023/02/01 05:39:07;;;;;;;2.92;0.80;;;2.50;99.90;;;;;;5060160;28;20083;-63
2023/02/01 05:41:34;;;;;;;1.88;0.82;;;2.50;99.90;;;;;;5062798;28;20544;-64
2023/02/01 05:44:01;;;;;;;2.42;0.68;;;2.50;99.90;;;;;;5061979;28;20553;-64
2023/02/01 05:46:28;;;;;;;1.77;0.55;;;2.40;99.90;;;;;;5061052;28;20139;-68
2023/02/01 05:48:55;;;;;;;3.80;1.00;;;2.40;99.90;;;;;;5058986;28;20048;-66
2023/02/01 05:51:22;;;;;;;4.00;1.23;;;2.40;99.90;;;;;;5058526;28;20445;-63
2023/02/01 05:53:48;;;;;;;1.08;0.55;;;2.40;99.90;;;;;;5063233;28;20047;-67
2023/02/01 05:56:15;;;;;;;3.60;0.60;;;2.40;99.90;;;;;;5061894;28;20049;-63
2023/02/01 05:58:42;;;;;;;1.25;0.82;;;2.30;99.90;;;;;;5060091;28;20136;-69
2023/02/01 06:01:09;;;;;;;2.58;0.77;;;2.30;99.90;;;;;;5060323;28;20048;-62
2023/02/01 06:03:36;;;;;;;1.10;0.52;;;2.20;99.90;;;;;;5060149;28;20036;-63
2023/02/01 06:06:03;;;;;;;1.58;0.95;;;2.20;99.90;;;;;;5060775;28;20126;-68
2023/02/01 06:08:30;;;;;;;1.45;0.40;;;2.10;99.90;;;;;;5062943;28;20045;-64
2023/02/01 06:11:02;;;;;;;3.83;0.70;;;2.10;99.90;;;;;;5059398;28;20471;-63
2023/02/01 06:13:29;;;;;;;1.90;0.60;;;2.00;99.90;;;;;;5057328;28;20048;-69
2023/02/01 06:16:00;;;;;;;5.55;0.63;;;2.00;99.90;;;;;;5055390;28;20072;-64
2023/02/01 06:18:27;;;;;;;1.90;0.68;;;1.90;99.90;;;;;;5061523;28;20055;-70
2023/02/01 06:20:55;;;;;;;2.10;0.80;;;1.90;99.90;;;;;;5063617;28;20048;-64
2023/02/01 06:23:23;;;;;;;2.70;0.68;;;1.90;99.90;;;;;;5065666;28;20074;-65
2023/02/01 06:25:52;;;;;;;2.25;0.90;;;1.90;99.90;;;;;;5062864;28;20053;-63
2023/02/01 06:28:19;;;;;;;4.72;2.25;;;1.90;99.90;;;;;;5065359;28;20048;-62
2023/02/01 06:30:45;;;;;;;1.55;0.63;;;1.90;99.90;;;;;;5059813;28;20055;-65
2023/02/01 06:33:17;;;;;;;3.05;0.93;;;1.90;99.90;;;;;;5050675;28;20131;-68
2023/02/01 06:35:44;;;;;;;;;;;1.90;99.90;;;;;;5065007;28;20506;-64
2023/02/01 06:38:11;;;;;;;3.75;0.85;;;1.90;99.90;;;;;;5064209;28;20101;-63
2023/02/01 06:40:39;;;;;;;2.30;0.90;;;2.00;99.90;;;;;;5064526;28;20044;-65
2023/02/01 06:43:06;;;;;;;3.17;1.55;;;2.00;99.90;;;;;;5063032;28;20433;-62
2023/02/01 06:45:32;;;;;;;4.32;1.70;;;2.00;99.90;;;;;;5063466;28;20052;-64
2023/02/01 06:48:02;;;;;;;3.00;0.93;;;2.00;99.90;;;;;;5060544;28;20161;-68
2023/02/01 06:50:29;;;;;;;2.58;0.88;;;2.10;99.90;;;;;;5060115;28;20609;-63
2023/02/01 06:52:56;;;;;;;0.68;0.50;;;2.20;99.90;;;;;;5062889;28;20409;-65
2023/02/01 06:55:23;;;;;;;2.90;0.73;;;2.20;99.90;;;;;;5064127;28;20350;-67
2023/02/01 06:57:54;;;;;;;1.80;0.80;;;2.20;99.90;;;;;;5056902;28;20444;-63
2023/02/01 07:00:22;;;;;;;2.85;0.70;;;2.20;99.90;;;;;;5061743;28;20062;-64
2023/02/01 07:02:50;;;;;;;1.55;0.75;;;2.20;99.90;;;;;;5058862;28;20139;-65
2023/02/01 07:05:17;;;;;;;2.55;0.90;;;2.20;99.90;;;;;;5064894;28;20363;-66
2023/02/01 07:07:44;;;;;;;1.80;0.80;;;2.20;99.90;;;;;;5060488;28;20148;-67
2023/02/01 07:10:11;;;;;;;2.75;0.70;;;2.20;99.90;;;;;;5064078;28;20127;-67
2023/02/01 07:12:38;;;;;;;3.58;0.80;;;2.20;99.90;;;;;;5064014;28;20059;-63
2023/02/01 07:15:06;;;;;;;4.03;1.20;;;2.30;99.90;;;;;;5060788;28;20059;-65
2023/02/01 07:17:33;;;;;;;2.58;0.82;;;2.30;99.90;;;;;;5062759;28;20055;-68
2023/02/01 07:20:01;;;;;;;1.05;0.45;;;2.30;99.90;;;;;;5063749;28;20044;-62
2023/02/01 07:22:28;;;;;;;1.02;0.57;;;2.30;99.90;;;;;;5064075;28;20048;-65
2023/02/01 07:24:55;;;;;;;0.95;0.95;;;2.30;99.90;;;;;;5062154;28;20450;-63
2023/02/01 07:27:24;;;;;;;1.52;0.80;;;2.30;99.90;;;;;;5063784;28;20157;-62
2023/02/01 07:29:52;;;;;;;1.80;0.52;;;2.30;99.90;;;;;;5059396;28;20061;-62
2023/02/01 07:32:19;;;;;;;3.55;0.80;;;2.30;99.90;;;;;;5061523;28;20550;-67
2023/02/01 07:34:46;;;;;;;0.60;0.40;;;2.30;99.90;;;;;;5060112;28;20059;-63
2023/02/01 07:37:13;;;;;;;1.58;0.70;;;2.40;99.90;;;;;;5063929;28;20447;-62
2023/02/01 07:39:39;;;;;;;0.60;0.50;;;2.40;99.90;;;;;;5062182;28;20053;-64
2023/02/01 07:42:06;;;;;;;0.98;0.40;;;2.40;99.90;;;;;;5063217;28;20044;-67
2023/02/01 07:44:33;;;;;;;3.15;0.73;;;2.40;99.90;;;;;;5063769;28;20045;-63
2023/02/01 07:47:00;;;;;;;2.15;0.95;;;2.40;99.90;;;;;;5060566;28;20056;-67
2023/02/01 07:49:27;;;;;;;1.90;0.70;;;2.40;99.90;;;;;;5059927;28;20055;-63
2023/02/01 07:51:54;;;;;;;0.80;0.63;;;2.40;99.90;;;;;;5061949;28;20137;-63
2023/02/01 07:54:21;;;;;;;5.35;1.08;;;2.30;99.90;;;;;;5062850;28;20121;-66
2023/02/01 07:56:48;;;;;;;3.38;0.95;;;2.40;99.90;;;;;;5060872;28;20211;-64
2023/02/01 07:59:15;;;;;;;2.90;0.73;;;2.40;99.90;;;;;;5063498;28;20046;-66
2023/02/01 08:01:43;;;;;;;1.25;0.68;;;2.30;99.90;;;;;;5061913;28;20060;-66
2023/02/01 08:04:12;;;;;;;2.08;0.40;;;2.30;99.90;;;;;;5062438;28;20518;-62
2023/02/01 08:06:39;;;;;;;4.45;1.10;;;2.40;99.90;;;;;;5062555;28;20503;-65
2023/02/01 08:09:08;;;;;;;2.72;0.82;;;2.40;99.90;;;;;;5051326;28;20048;-67
2023/02/01 08:11:37;;;;;;;3.85;0.60;;;2.40;99.90;;;;;;5059897;28;20048;-64
2023/02/01 08:14:05;;;;;;;4.20;1.13;;;2.40;99.90;;;;;;5062279;28;20212;-64
2023/02/01 08:16:33;;;;;;;2.00;0.85;;;2.40;99.90;;;;;;5060079;28;20053;-63
2023/02/01 08:19:00;;;;;;;2.25;0.57;;;2.40;99.90;;;;;;5059308;28;20055;-62
2023/02/01 08:21:36;;;;;;;1.75;0.68;;;2.40;99.90;;;;;;5059257;28;20506;-65
2023/02/01 08:24:05;;;;;;;4.00;0.90;;;2.40;99.90;;;;;;5063291;28;20061;-62
2023/02/01 08:26:32;;;;;;;2.15;0.77;;;2.50;99.90;;;;;;5058215;28;20083;-64
2023/02/01 08:29:02;;;;;;;2.60;0.60;;;2.50;99.90;;;;;;5058580;28;20454;-67
2023/02/01 08:31:30;;;;;;;2.40;0.85;;;2.50;99.90;;;;;;5061476;28;20048;-66
2023/02/01 08:34:00;;;;;;;2.35;0.90;;;2.50;99.90;;;;;;5059919;28;20036;-63
2023/02/01 08:36:28;;;;;;;5.25;0.75;;;2.60;99.90;;;;;;5062485;28;20079;-63
2023/02/01 08:38:56;;;;;;;2.25;0.52;;;2.60;99.90;;;;;;5060872;28;20045;-65
2023/02/01 08:41:26;;;;;;;4.40;0.70;;;2.60;99.90;;;;;;5061563;28;20110;-69
2023/02/01 08:43:54;;;;;;;5.20;0.90;;;2.60;99.90;;;;;;5062522;28;20462;-63
2023/02/01 08:46:23;;;;;;;1.52;1.15;;;2.70;99.90;;;;;;5061957;28;20135;-63
2023/02/01 08:48:51;;;;;;;4.00;0.93;;;2.70;99.90;;;;;;5051521;28;20386;-65
2023/02/01 08:51:21;;;;;;;3.60;0.70;;;2.70;99.90;;;;;;5059834;28;20076;-64
2023/02/01 08:53:49;;;;;;;5.13;0.77;;;2.70;99.90;;;;;;5059392;28;20075;-67
2023/02/01 08:56:17;;;;;;;3.42;0.93;;;2.80;99.90;;;;;;5058670;28;20048;-66
2023/02/01 08:58:44;;;;;;;3.13;0.75;;;2.80;99.90;;;;;;5060633;28;20146;-65
2023/02/01 09:01:15;;;;;;;3.33;0.98;;;2.80;99.90;;;;;;5060388;28;20044;-64
2023/02/01 09:03:42;;;;;;;2.30;1.40;;;2.90;99.90;;;;;;5061148;28;20113;-66
2023/02/01 09:06:12;;;;;;;11.45;1.30;;;3.00;99.90;;;;;;5061715;28;20427;-64
2023/02/01 09:08:40;;;;;;;4.75;1.13;;;3.00;99.90;;;;;;5063003;28;20067;-63
2023/02/01 09:11:11;;;;;;;7.10;1.45;;;3.10;99.90;;;;;;5060207;28;20477;-63
2023/02/01 09:13:38;;;;;;;1.75;0.93;;;3.10;99.90;;;;;;5062866;28;20362;-65
2023/02/01 09:16:06;;;;;;;5.30;1.00;;;3.10;99.90;;;;;;5059357;28;20584;-67
2023/02/01 09:18:33;;;;;;;5.95;1.27;;;3.10;99.90;;;;;;5055328;28;20156;-63
2023/02/01 09:21:05;;;;;;;6.35;0.90;;;3.10;99.90;;;;;;5054331;28;20116;-65
2023/02/01 09:23:32;;;;;;;4.25;1.08;;;3.10;99.90;;;;;;5063192;28;20456;-67
2023/02/01 09:26:04;;;;;;;2.63;1.20;;;3.10;99.90;;;;;;5060078;28;20054;-64
2023/02/01 09:28:31;;;;;;;5.53;1.08;;;3.20;99.90;;;;;;5061715;28;20110;-68
2023/02/01 09:30:59;;;;;;;5.05;1.00;;;3.20;99.90;;;;;;5056501;28;20056;-69
2023/02/01 09:33:27;;;;;;;7.35;1.45;;;3.10;99.90;;;;;;5058647;28;20305;-66
2023/02/01 09:35:58;;;;;;;3.72;1.15;;;3.20;99.90;;;;;;5058306;28;20048;-65
2023/02/01 09:38:27;;;;;;;4.60;1.17;;;3.20;99.90;;;;;;5059819;28;20048;-68
2023/02/01 09:40:55;;;;;;;11.95;2.05;;;3.20;99.90;;;;;;5054050;28;20379;-63
2023/02/01 09:43:44;;;;;;;9.18;1.05;;;3.30;99.90;;;;;;5060073;28;20140;-65
2023/02/01 09:46:29;;;;;;;8.98;1.52;;;3.30;99.90;;;;;;5060029;28;20098;-64
2023/02/01 09:49:02;;;;;;;9.15;1.63;;;3.30;99.90;;;;;;5053861;28;20068;-65
2023/02/01 09:51:34;;;;;;;8.98;2.20;;;3.30;99.90;;;;;;5060098;28;20056;-64
2023/02/01 09:54:21;;;;;;;3.40;0.90;;;3.30;99.90;;;;;;5058731;28;20059;-64
2023/02/01 09:57:13;;;;;;;9.93;1.42;;;3.40;99.90;;;;;;5060559;28;20802;-66
2023/02/01 09:59:43;;;;;;;10.48;0.98;;;3.40;99.90;;;;;;5061539;28;20080;-65
2023/02/01 10:02:26;;;;;;;3.60;1.20;;;3.40;99.90;;;;;;5062793;28;20416;-67
2023/02/01 10:04:57;;;;;;;2.67;1.00;;;3.40;99.90;;;;;;5062547;28;20056;-64
2023/02/01 10:07:23;;;;;;;6.95;1.58;;;3.50;99.90;;;;;;5063515;28;20060;-66
2023/02/01 10:10:14;;;;;;;3.45;1.20;;;3.40;99.90;;;;;;5062272;28;20044;-64
2023/02/01 10:13:23;;;;;;;10.40;1.10;;;3.40;99.90;;;;;;5058822;28;20131;-64
2023/02/01 10:16:07;;;;;;;7.50;1.45;;;3.40;99.90;;;;;;5052088;28;20045;-66
2023/02/01 10:18:34;;;;;;;4.40;1.10;;;3.50;99.90;;;;;;5059002;28;20048;-63
2023/02/01 10:21:24;;;;;;;4.20;1.45;;;3.50;99.90;;;;;;5063348;28;20434;-63
2023/02/01 10:24:05;;;;;;;7.70;1.17;;;3.60;99.90;;;;;;5064606;28;20032;-63
2023/02/01 10:26:50;;;;;;;6.95;1.23;;;3.60;99.90;;;;;;5060082;28;20059;-69
2023/02/01 10:29:20;;;;;;;10.13;2.40;;;3.60;99.90;;;;;;5063460;28;20084;-63
2023/02/01 10:31:47;;;;;;;5.72;1.38;;;3.70;99.90;;;;;;5061972;28;20142;-66
2023/02/01 10:34:20;;;;;;;7.60;1.30;;;3.70;99.90;;;;;;5064227;28;20052;-63
2023/02/01 10:36:52;;;;;;;8.23;1.67;;;3.80;99.90;;;;;;5061724;28;20059;-65
2023/02/01 10:39:19;;;;;;;10.15;1.95;;;3.80;99.90;;;;;;5064611;28;20060;-67
2023/02/01 10:41:47;;;;;;;4.05;1.30;;;3.80;99.90;;;;;;5064811;28;20048;-65
2023/02/01 10:44:24;;;;;;;10.82;2.00;;;3.80;99.90;;;;;;5060122;28;20394;-63
2023/02/01 10:46:51;;;;;;;3.85;1.08;;;3.90;99.90;;;;;;5059183;28;20135;-65
2023/02/01 10:49:26;;;;;;;4.68;1.85;;;3.90;99.90;;;;;;5063968;28;20054;-64
2023/02/01 10:52:17;;;;;;;4.93;1.60;;;3.90;99.90;;;;;;5060661;28;20044;-64
2023/02/01 10:54:44;;;;;;;6.95;2.15;;;3.90;99.90;;;;;;5060169;28;20131;-63
2023/02/01 10:57:25;;;;;;;5.22;1.45;;;3.80;99.90;;;;;;5062361;28;20049;-68
2023/02/01 10:59:53;;;;;;;7.93;1.75;;;3.80;99.90;;;;;;5063767;28;20062;-64
2023/02/01 11:02:35;;;;;;;8.07;1.90;;;3.80;99.90;;;;;;5060670;28;20060;-68
2023/02/01 11:05:10;;;;;;;8.75;2.47;;;3.80;99.90;;;;;;5060944;28;20048;-65
2023/02/01 11:07:38;;;;;;;11.85;3.85;;;3.70;99.90;;;;;;5061215;28;20106;-67
2023/02/01 11:10:06;;;;;;;7.30;2.63;;;3.70;99.90;;;;;;5064533;28;20054;-63
2023/02/01 11:12:36;;;;;;;5.90;1.45;;;3.80;99.90;;;;;;5062760;28;20049;-62
2023/02/01 11:15:24;;;;;;;9.85;2.10;;;3.80;99.90;;;;;;5062480;28;20048;-63
2023/02/01 11:17:54;;;;;;;7.57;1.83;;;3.80;99.90;;;;;;5061358;28;20094;-63
2023/02/01 11:20:39;;;;;;;9.60;1.92;;;3.90;99.90;;;;;;5062375;28;20521;-71
2023/02/01 11:23:17;;;;;;;13.18;2.40;;;3.90;99.90;;;;;;5060960;28;20047;-66
2023/02/01 11:26:01;;;;;;;6.43;1.33;;;3.90;99.90;;;;;;5059910;28;20561;-68
2023/02/01 11:28:33;;;;;;;6.55;1.60;;;3.90;99.90;;;;;;5064150;28;20118;-66
2023/02/01 11:31:04;;;;;;;6.47;1.65;;;3.80;99.90;;;;;;5055834;28;20813;-66
2023/02/01 11:33:34;;;;;;;5.95;1.35;;;3.80;99.90;;;;;;5059486;28;20048;-66
2023/02/01 11:36:20;;;;;;;13.57;1.85;;;3.80;99.90;;;;;;5062705;28;20052;-68
2023/02/01 11:39:13;;;;;;;6.85;2.20;;;3.80;99.90;;;;;;5061343;28;20106;-65
2023/02/01 11:41:54;;;;;;;7.75;1.95;;;3.90;99.90;;;;;;5062142;28;20048;-67
2023/02/01 11:44:39;;;;;;;4.72;1.40;;;3.90;99.90;;;;;;5062774;28;20171;-67
2023/02/01 11:47:19;;;;;;;5.88;1.60;;;3.90;99.90;;;;;;5061927;28;20044;-65
2023/02/01 11:49:48;;;;;;;5.25;1.83;;;4.00;99.90;;;;;;5062638;28;20059;-66
2023/02/01 11:52:38;;;;;;;4.30;1.63;;;4.00;99.90;;;;;;5062882;28;20790;-68
2023/02/01 11:55:14;;;;;;;5.60;1.45;;;4.10;99.90;;;;;;5053801;28;20140;-65
2023/02/01 11:57:59;;;;;;;6.55;2.85;;;4.00;99.90;;;;;;5061021;28;20070;-66
2023/02/01 12:00:41;;;;;;;6.80;1.17;;;4.10;99.90;;;;;;5063367;28;20561;-67
2023/02/01 12:03:26;;;;;;;6.43;1.48;;;4.00;99.90;;;;;;5057062;28;20127;-65
2023/02/01 12:06:00;;;;;;;7.32;1.67;;;3.90;99.90;;;;;;5061318;28;20159;-65
2023/02/01 12:08:41;;;;;;;10.20;1.48;;;3.90;99.90;;;;;;5062292;28;20058;-65
2023/02/01 12:11:28;;;;;;;5.65;1.70;;;3.80;99.90;;;;;;5058048;28;20378;-65
2023/02/01 12:14:23;;;;;;;6.50;3.72;;;3.80;99.90;;;;;;5060951;28;20552;-69
2023/02/01 12:17:09;;;;;;;13.80;2.25;;;3.80;99.90;;;;;;5055466;28;20056;-66
2023/02/01 12:20:03;;;;;;;6.40;1.77;;;3.80;99.90;;;;;;5057592;28;20144;-65
2023/02/01 12:22:36;;;;;;;7.47;1.45;;;3.80;99.90;;;;;;5056893;28;20143;-67
2023/02/01 12:25:20;;;;;;;10.38;2.20;;;3.70;99.90;;;;;;5056639;28;20055;-67
2023/02/01 12:27:59;;;;;;;10.80;1.27;;;3.70;99.90;;;;;;5060367;28;20144;-66
2023/02/01 12:30:56;;;;;;;6.60;1.90;;;3.70;99.90;;;;;;5058888;28;20086;-65
2023/02/01 12:33:52;;;;;;;5.15;1.90;;;3.70;99.90;;;;;;5057782;28;20083;-65
2023/02/01 12:36:22;;;;;;;4.63;1.30;;;3.60;99.90;;;;;;5059868;28;20143;-65
2023/02/01 12:39:24;;;;;;;7.00;1.30;;;3.60;99.90;;;;;;5059655;28;20563;-68
2023/02/01 12:42:03;;;;;;;10.45;1.33;;;3.60;99.90;;;;;;5059514;28;20056;-67
2023/02/01 12:44:49;;;;;;;3.85;1.42;;;3.60;99.90;;;;;;5060577;28;20052;-69
2023/02/01 12:47:29;;;;;;;2.08;1.75;;;3.60;99.90;;;;;;5058996;28;20048;-68
2023/02/01 12:50:12;;;;;;;6.97;1.67;;;3.50;99.90;;;;;;5058522;28;20114;-64
2023/02/01 12:52:49;;;;;;;5.90;1.45;;;3.40;99.90;;;;;;5055387;28;20537;-71
2023/02/01 12:55:26;;;;;;;5.05;1.52;;;3.40;99.90;;;;;;5038309;28;20079;-66
2023/02/01 12:57:58;;;;;;;2.13;1.00;;;3.40;99.90;;;;;;5060149;28;20157;-66
2023/02/01 13:00:32;;;;;;;5.95;0.90;;;3.40;99.90;;;;;;5056767;28;20121;-71
2023/02/01 13:03:26;;;;;;;7.50;1.30;;;3.40;99.90;;;;;;5055822;28;20041;-67
2023/02/01 13:06:06;;;;;;;5.60;1.10;;;3.40;99.90;;;;;;5058943;28;20040;-65
2023/02/01 13:08:51;;;;;;;4.30;1.60;;;3.50;99.90;;;;;;5060332;28;20044;-67
2023/02/01 13:11:40;;;;;;;8.23;1.27;;;3.50;99.90;;;;;;5059603;28;20048;-68
2023/02/01 13:14:15;;;;;;;9.45;1.83;;;3.60;99.90;;;;;;5060210;28;20049;-65
2023/02/01 13:16:49;;;;;;;5.15;1.80;;;3.60;99.90;;;;;;5059488;28;20648;-66
2023/02/01 13:19:35;;;;;;;14.23;2.78;;;3.60;99.90;;;;;;5057314;28;20049;-65
2023/02/01 13:22:25;;;;;;;7.88;2.10;;;3.70;99.90;;;;;;5056272;28;20156;-66
2023/02/01 13:25:03;;;;;;;11.17;1.83;;;3.70;99.90;;;;;;5056407;28;20509;-67
2023/02/01 13:27:32;;;;;;;11.00;1.92;;;3.70;99.90;;;;;;5061404;28;20056;-67
2023/02/01 13:30:03;;;;;;;12.05;2.63;;;3.70;99.90;;;;;;5065418;28;20040;-68
2023/02/01 13:33:01;;;;;;;6.45;1.90;;;3.70;99.90;;;;;;5064169;28;20048;-67
2023/02/01 13:36:16;;;;;;;6.45;2.00;;;3.70;99.90;;;;;;5061981;28;20045;-67
2023/02/01 13:39:01;;;;;;;8.68;3.58;;;3.80;99.90;;;;;;5060487;28;20068;-65
2023/02/01 13:41:39;;;;;;;6.65;1.65;;;3.80;99.90;;;;;;5060771;28;20082;-66
2023/02/01 13:44:14;;;;;;;4.32;1.92;;;3.80;99.90;;;;;;5064520;28;20328;-64
2023/02/01 13:46:45;;;;;;;12.05;2.72;;;3.80;99.90;;;;;;5058193;28;20122;-66
2023/02/01 13:49:28;;;;;;;10.95;2.33;;;3.80;99.90;;;;;;5063125;28;20040;-67
2023/02/01 13:51:57;;;;;;;9.88;2.58;;;3.80;99.90;;;;;;5062961;28;20060;-66
2023/02/01 13:54:37;;;;;;;9.52;2.97;;;3.80;99.90;;;;;;5060424;28;20130;-65